Time;durP1;ratioP1;P1;durP2;ratioP2;P2;SDS_P1;SDS_P2;PMS_P1;PMS_P2;Temp;Humidity;BMP_temperature;BMP_pressure;BME280_temperature;BME280_humidity;BME280_pressure;Samples;Min_cycle;Max_cycle;Signal;HPM_P1;HPM_P2
2022/09/17 00:01:19;;;;;;;15.10;2.38;;;;;;;10.62;86.24;100819.41;5113126;28;20063;-61
2022/09/17 00:03:56;;;;;;;18.05;2.63;;;;;;;10.61;86.13;100823.06;5112536;28;20405;-61
2022/09/17 00:06:24;;;;;;;16.30;2.30;;;;;;;10.57;86.11;100819.88;5113091;28;20048;-61
2022/09/17 00:08:52;;;;;;;14.48;2.92;;;;;;;10.55;86.34;100813.88;5113480;28;20051;-60
2022/09/17 00:11:24;;;;;;;15.85;2.30;;;;;;;10.52;86.83;100808.91;5113675;28;20549;-60
2022/09/17 00:13:53;;;;;;;12.77;2.40;;;;;;;10.50;87.27;100809.03;5113088;28;20118;-61
2022/09/17 00:16:24;;;;;;;12.70;2.38;;;;;;;10.53;87.04;100811.41;5113492;28;20036;-61
2022/09/17 00:18:52;;;;;;;21.25;2.55;;;;;;;10.61;86.75;100817.75;5112981;28;20047;-61
2022/09/17 00:21:19;;;;;;;11.55;2.47;;;;;;;10.53;87.38;100811.41;5113654;28;20040;-61
2022/09/17 00:23:46;;;;;;;18.60;2.50;;;;;;;10.57;87.32;100814.59;5115372;28;20069;-61
2022/09/17 00:26:14;;;;;;;15.27;2.53;;;;;;;10.61;87.25;100815.94;5117822;28;20044;-61
2022/09/17 00:28:44;;;;;;;15.25;2.90;;;;;;;10.56;87.45;100813.72;5117529;28;20056;-60
2022/09/17 00:31:11;;;;;;;14.45;2.80;;;;;;;10.59;87.83;100811.75;5117354;28;20048;-61
2022/09/17 00:33:37;;;;;;;18.92;2.80;;;;;;;10.61;87.45;100818.59;5117076;28;20036;-61
2022/09/17 00:36:05;;;;;;;14.52;2.80;;;;;;;10.52;88.04;100820.31;5117338;28;20081;-61
2022/09/17 00:38:32;;;;;;;19.48;3.03;;;;;;;10.61;88.39;100809.81;5117023;28;20047;-61
2022/09/17 00:41:00;;;;;;;14.23;2.78;;;;;;;10.63;87.85;100829.06;5117192;28;20044;-61
2022/09/17 00:43:41;;;;;;;15.50;2.88;;;;;;;10.55;88.25;100820.03;5116713;28;20050;-61
2022/09/17 00:46:38;;;;;;;14.68;2.95;;;;;;;10.65;88.21;100821.78;5117047;28;20040;-61
2022/09/17 00:49:11;;;;;;;16.92;3.40;;;;;;;10.65;88.16;100827.06;5117012;28;20096;-61
2022/09/17 00:51:44;;;;;;;16.65;3.28;;;;;;;10.73;88.78;100821.81;5116528;28;20039;-61
2022/09/17 00:54:11;;;;;;;18.17;3.72;;;;;;;10.79;87.53;100833.66;5116922;28;20046;-61
2022/09/17 00:56:40;;;;;;;14.75;4.03;;;;;;;10.65;88.12;100822.59;5098919;28;20036;-61
2022/09/17 00:59:07;;;;;;;14.32;4.20;;;;;;;10.62;88.64;100830.84;5116535;28;20459;-61
2022/09/17 01:01:35;;;;;;;19.60;3.50;;;;;;;10.57;88.80;100835.81;5116498;28;20052;-61
2022/09/17 01:04:02;;;;;;;19.95;3.90;;;;;;;10.54;90.05;100838.75;5115518;28;20097;-61
2022/09/17 01:06:40;;;;;;;12.35;3.08;;;;;;;10.61;90.04;100834.50;5098363;28;20048;-61
2022/09/17 01:09:33;;;;;;;15.27;3.63;;;;;;;10.78;88.50;100834.66;5116352;28;20075;-64
2022/09/17 01:12:32;;;;;;;15.50;3.40;;;;;;;10.76;88.60;100837.44;5101388;28;20043;-61
2022/09/17 01:15:33;;;;;;;18.48;3.53;;;;;;;10.72;89.03;100838.75;5116216;28;20043;-61
2022/09/17 01:18:23;;;;;;;13.32;3.75;;;;;;;10.71;89.77;100832.63;5116670;28;20538;-61
2022/09/17 01:24:16;;;;;;;13.48;3.67;;;;;;;10.66;89.75;100848.16;5110588;27;20372;-60
2022/09/17 01:27:24;;;;;;;19.05;3.85;;;;;;;10.69;89.92;100842.53;5110715;28;20046;-60
2022/09/17 01:30:25;;;;;;;13.63;3.55;;;;;;;10.78;88.67;100850.56;5110707;28;20043;-60
2022/09/17 01:33:10;;;;;;;13.88;3.72;;;;;;;10.76;88.49;100854.19;5110507;28;20068;-60
2022/09/17 01:35:59;;;;;;;13.65;3.40;;;;;;;10.71;89.17;100845.88;5109574;28;20052;-60
2022/09/17 01:38:40;;;;;;;21.63;3.80;;;;;;;10.68;89.19;100843.53;5109970;28;20040;-60
2022/09/17 01:44:08;;;;;;;16.30;3.67;;;;;;;10.64;89.25;100847.47;5110855;27;20129;-60
2022/09/17 01:46:42;;;;;;;21.80;3.50;;;;;;;10.65;89.51;100843.81;5126866;28;20039;-60
2022/09/17 01:49:10;;;;;;;21.77;3.78;;;;;;;10.59;89.30;100846.22;5111007;28;20052;-60
2022/09/17 01:51:41;;;;;;;18.45;4.75;;;;;;;10.56;89.37;100850.88;5111045;28;20036;-60
2022/09/17 01:54:29;;;;;;;18.63;3.80;;;;;;;10.62;89.55;100854.72;5110687;28;20043;-60
2022/09/17 01:57:08;;;;;;;20.58;4.50;;;;;;;10.63;89.91;100850.28;5110969;28;20062;-60
2022/09/17 01:59:42;;;;;;;14.43;3.17;;;;;;;10.60;89.23;100854.03;5110687;28;20064;-60
2022/09/17 02:02:15;;;;;;;14.70;3.25;;;;;;;10.64;89.54;100852.78;5110297;28;20102;-61
2022/09/17 02:04:53;;;;;;;16.95;3.30;;;;;;;10.65;89.50;100851.78;5110087;28;20061;-60
2022/09/17 02:07:22;;;;;;;16.83;3.13;;;;;;;10.63;89.16;100847.63;5110318;28;20044;-60
2022/09/17 02:09:58;;;;;;;15.15;3.47;;;;;;;10.49;89.71;100849.78;5110373;28;20035;-60
2022/09/17 02:12:38;;;;;;;22.95;3.35;;;;;;;10.54;89.93;100855.50;5108969;28;20413;-60
2022/09/17 02:15:13;;;;;;;28.77;4.07;;;;;;;10.44;89.75;100852.09;5110244;28;20048;-60
2022/09/17 02:17:52;;;;;;;16.40;3.30;;;;;;;10.50;89.64;100854.13;5110390;28;20055;-60
2022/09/17 02:20:25;;;;;;;16.52;4.35;;;;;;;10.54;89.94;100858.13;5110304;28;20505;-60
2022/09/17 02:22:56;;;;;;;22.33;4.28;;;;;;;10.55;89.86;100862.47;5109761;28;20036;-60
2022/09/17 02:25:30;;;;;;;28.25;3.85;;;;;;;10.69;89.17;100857.63;5110575;28;20452;-60
2022/09/17 02:28:04;;;;;;;20.50;3.75;;;;;;;10.78;89.76;100862.00;5110328;28;20048;-60
2022/09/17 02:30:31;;;;;;;26.10;3.40;;;;;;;10.72;90.41;100852.00;5109884;28;20122;-60
2022/09/17 02:33:01;;;;;;;23.95;3.20;;;;;;;10.68;90.16;100861.28;5109891;28;20036;-60
2022/09/17 02:35:29;;;;;;;16.98;3.53;;;;;;;10.67;91.64;100857.75;5110089;28;20192;-60
2022/09/17 02:37:56;;;;;;;17.40;3.08;;;;;;;10.70;89.93;100844.19;5109924;28;20534;-60
2022/09/17 02:40:27;;;;;;;19.05;3.25;;;;;;;10.76;89.20;100851.53;5110215;28;20051;-60
2022/09/17 02:43:18;;;;;;;15.83;2.97;;;;;;;10.78;89.45;100853.22;5109527;28;20109;-60
2022/09/17 02:46:15;;;;;;;17.58;3.10;;;;;;;10.68;89.80;100854.13;5109704;28;20048;-61
2022/09/17 02:49:10;;;;;;;16.38;2.97;;;;;;;10.82;89.49;100859.88;5109802;28;20044;-60
2022/09/17 02:52:04;;;;;;;19.77;3.63;;;;;;;10.78;88.67;100859.34;5109434;28;20097;-60
2022/09/17 02:54:51;;;;;;;21.67;3.20;;;;;;;10.79;88.68;100862.84;5099438;28;20101;-60
2022/09/17 02:57:38;;;;;;;17.60;3.00;;;;;;;10.71;89.27;100859.16;5096016;28;20118;-60
2022/09/17 03:00:13;;;;;;;15.23;3.05;;;;;;;10.75;89.15;100855.19;5096191;28;20055;-60
2022/09/17 03:02:46;;;;;;;25.27;3.50;;;;;;;10.72;89.59;100854.66;5095737;28;20063;-60
2022/09/17 03:05:17;;;;;;;19.70;3.22;;;;;;;10.86;89.21;100866.53;5095317;28;20040;-60
2022/09/17 03:07:44;;;;;;;14.48;2.78;;;;;;;10.81;87.31;100863.53;5095476;28;20093;-60
2022/09/17 03:10:12;;;;;;;20.92;2.67;;;;;;;10.74;87.55;100868.63;5095270;28;20036;-60
2022/09/17 03:12:39;;;;;;;18.40;3.00;;;;;;;10.90;86.97;100862.63;5095804;28;20044;-60
2022/09/17 03:15:07;;;;;;;25.35;3.22;;;;;;;10.86;87.62;100872.72;5095546;28;20131;-61
2022/09/17 03:17:34;;;;;;;28.38;2.88;;;;;;;10.86;86.42;100866.53;5095802;28;20552;-60
2022/09/17 03:20:01;;;;;;;17.30;3.00;;;;;;;10.85;86.47;100862.25;5095613;28;20048;-60
2022/09/17 03:22:27;;;;;;;14.88;2.92;;;;;;;10.98;86.04;100867.16;5095180;28;20047;-61
2022/09/17 03:24:54;;;;;;;22.30;2.80;;;;;;;10.83;87.14;100866.88;5094497;28;20052;-60
2022/09/17 03:27:20;;;;;;;15.57;2.67;;;;;;;10.82;88.04;100865.19;5095297;28;20048;-60
2022/09/17 03:29:47;;;;;;;19.42;3.08;;;;;;;10.95;86.68;100862.97;5095327;28;20044;-60
2022/09/17 03:32:14;;;;;;;18.67;2.75;;;;;;;10.87;87.61;100862.91;5095150;28;20045;-60
2022/09/17 03:34:40;;;;;;;15.45;2.65;;;;;;;10.90;86.89;100858.13;5095515;28;20044;-61
2022/09/17 03:37:07;;;;;;;17.48;2.63;;;;;;;10.92;86.61;100865.94;5095096;28;20052;-60
2022/09/17 03:39:34;;;;;;;27.15;3.30;;;;;;;11.00;86.45;100865.19;5095358;28;20052;-60
2022/09/17 03:42:00;;;;;;;15.02;2.70;;;;;;;10.89;87.43;100867.06;5094451;28;20497;-60
2022/09/17 03:44:27;;;;;;;18.63;2.65;;;;;;;10.93;87.64;100862.28;5093775;28;20187;-60
2022/09/17 03:46:54;;;;;;;17.83;2.50;;;;;;;10.87;87.26;100869.06;5095391;28;20067;-60
2022/09/17 03:49:22;;;;;;;20.85;2.40;;;;;;;10.83;88.99;100875.66;5095174;28;20048;-60
2022/09/17 03:51:49;;;;;;;19.40;2.55;;;;;;;10.85;90.56;100879.00;5095207;28;20052;-60
2022/09/17 03:54:16;;;;;;;17.75;2.80;;;;;;;10.97;89.85;100876.94;5094826;28;20081;-60
2022/09/17 03:56:43;;;;;;;23.40;2.30;;;;;;;10.95;88.52;100870.94;5095006;28;20048;-60
2022/09/17 03:59:09;;;;;;;20.77;2.67;;;;;;;11.00;88.42;100873.13;5093929;28;20101;-60
2022/09/17 04:01:36;;;;;;;15.30;2.53;;;;;;;11.00;88.45;100875.81;5095028;28;20052;-61
2022/09/17 04:04:03;;;;;;;17.02;2.42;;;;;;;10.93;88.59;100878.22;5093879;28;20043;-60
2022/09/17 04:06:30;;;;;;;15.93;2.25;;;;;;;10.77;90.39;100884.25;5093747;28;20052;-61
2022/09/17 04:08:56;;;;;;;18.55;2.22;;;;;;;10.76;90.00;100875.44;5093063;28;20097;-60
2022/09/17 04:11:23;;;;;;;23.75;3.83;;;;;;;10.80;89.13;100877.78;5094597;28;20048;-60
2022/09/17 04:13:49;;;;;;;20.35;3.55;;;;;;;10.78;89.96;100877.94;5093547;28;20048;-60
2022/09/17 04:16:17;;;;;;;20.00;3.95;;;;;;;10.95;89.00;100879.75;5094659;28;20056;-60
2022/09/17 04:18:44;;;;;;;19.52;3.03;;;;;;;10.85;88.96;100888.78;5093322;28;20063;-60
2022/09/17 04:21:11;;;;;;;25.15;3.00;;;;;;;10.89;88.31;100880.34;5094640;28;20055;-60
2022/09/17 04:23:37;;;;;;;25.30;2.95;;;;;;;10.81;88.97;100892.72;5093376;28;20105;-60
2022/09/17 04:26:04;;;;;;;22.15;2.78;;;;;;;10.79;88.35;100894.69;5094486;28;20050;-60
2022/09/17 04:28:31;;;;;;;18.27;3.10;;;;;;;10.65;90.60;100894.22;5093931;28;20048;-61
2022/09/17 04:30:58;;;;;;;15.95;2.47;;;;;;;10.70;88.80;100885.81;5092940;28;20047;-60
2022/09/17 04:33:24;;;;;;;19.30;3.00;;;;;;;10.62;89.24;100893.69;5094167;28;20044;-60
2022/09/17 04:35:52;;;;;;;27.58;3.78;;;;;;;10.59;90.24;100894.84;5094085;28;20047;-60
2022/09/17 04:38:20;;;;;;;16.27;2.38;;;;;;;10.60;89.62;100888.53;5093482;28;20044;-60
2022/09/17 04:40:47;;;;;;;20.98;2.90;;;;;;;10.52;89.10;100891.13;5092629;28;20052;-60
2022/09/17 04:43:14;;;;;;;20.95;2.42;;;;;;;10.54;89.96;100899.75;5093656;28;20109;-60
2022/09/17 04:45:44;;;;;;;21.15;3.13;;;;;;;10.54;89.13;100902.41;5093711;28;20127;-60
2022/09/17 04:48:11;;;;;;;23.90;2.95;;;;;;;10.53;89.33;100901.59;5094103;28;20048;-60
2022/09/17 04:50:38;;;;;;;22.45;3.22;;;;;;;10.62;88.70;100904.31;5093789;28;20040;-60
2022/09/17 04:53:05;;;;;;;21.90;2.60;;;;;;;10.54;89.18;100897.09;5093336;28;20040;-60
2022/09/17 04:55:31;;;;;;;23.42;3.10;;;;;;;10.60;88.60;100904.44;5092710;28;20048;-60
2022/09/17 04:57:58;;;;;;;17.23;2.33;;;;;;;10.52;89.83;100904.38;5093420;28;20044;-60
2022/09/17 05:00:25;;;;;;;16.80;2.80;;;;;;;10.59;88.64;100905.44;5093604;28;20485;-60
2022/09/17 05:02:54;;;;;;;22.90;3.30;;;;;;;10.55;89.21;100910.22;5093164;28;20093;-60
2022/09/17 05:05:23;;;;;;;16.45;3.10;;;;;;;10.59;88.75;100912.56;5092013;28;20123;-60
2022/09/17 05:07:50;;;;;;;15.77;2.95;;;;;;;10.49;88.72;100913.44;5093404;28;20043;-60
2022/09/17 05:10:19;;;;;;;19.58;2.85;;;;;;;10.47;88.27;100910.13;5092002;28;20048;-60
2022/09/17 05:12:49;;;;;;;23.13;2.92;;;;;;;10.54;88.36;100921.81;5093784;28;20514;-60
2022/09/17 05:15:16;;;;;;;20.13;2.95;;;;;;;10.45;88.91;100924.53;5093576;28;20078;-60
2022/09/17 05:17:44;;;;;;;16.00;2.50;;;;;;;10.48;88.66;100929.53;5092273;28;20503;-60
2022/09/17 05:20:12;;;;;;;11.43;2.65;;;;;;;10.49;88.38;100916.09;5093281;28;20093;-61
2022/09/17 05:22:42;;;;;;;20.08;2.85;;;;;;;10.44;88.19;100925.50;5092681;28;20062;-60
2022/09/17 05:25:09;;;;;;;16.77;2.65;;;;;;;10.43;89.00;100923.84;5093504;28;20048;-60
2022/09/17 05:27:37;;;;;;;20.60;2.70;;;;;;;10.34;88.84;100918.44;5092121;28;20040;-60
2022/09/17 05:30:04;;;;;;;18.75;3.15;;;;;;;10.28;89.35;100916.34;5093599;28;20054;-60
2022/09/17 05:32:31;;;;;;;18.45;2.95;;;;;;;10.33;89.03;100923.88;5092776;28;20040;-60
2022/09/17 05:34:58;;;;;;;12.43;2.85;;;;;;;10.32;89.13;100924.88;5093617;28;20048;-60
2022/09/17 05:37:26;;;;;;;14.85;2.42;;;;;;;10.37;88.66;100925.28;5092899;28;20048;-60
2022/09/17 05:39:53;;;;;;;20.98;2.47;;;;;;;10.26;88.86;100926.28;5093274;28;20539;-60
2022/09/17 05:42:19;;;;;;;15.40;2.40;;;;;;;10.39;88.67;100936.56;5092776;28;20054;-60
2022/09/17 05:44:46;;;;;;;12.65;2.20;;;;;;;10.30;89.00;100937.41;5093039;28;20442;-60
2022/09/17 05:47:13;;;;;;;15.25;2.72;;;;;;;10.27;88.90;100938.53;5092194;28;20094;-60
2022/09/17 05:49:40;;;;;;;16.58;2.80;;;;;;;10.33;88.77;100943.28;5093094;28;20378;-60
2022/09/17 05:52:06;;;;;;;19.13;3.10;;;;;;;10.35;89.13;100949.28;5092905;28;20036;-61
2022/09/17 05:54:33;;;;;;;18.88;2.65;;;;;;;10.37;88.65;100944.66;5092648;28;20044;-61
2022/09/17 05:57:00;;;;;;;13.20;2.35;;;;;;;10.43;88.52;100950.38;5093174;28;20071;-59
2022/09/17 05:59:27;;;;;;;23.38;3.17;;;;;;;10.41;89.29;100957.63;5091464;28;20093;-60
2022/09/17 06:01:54;;;;;;;18.95;2.80;;;;;;;10.43;88.78;100955.66;5092945;28;20040;-60
2022/09/17 06:04:20;;;;;;;15.40;2.33;;;;;;;10.54;88.23;100964.25;5091783;28;20119;-61
2022/09/17 06:06:47;;;;;;;18.40;3.17;;;;;;;10.54;87.92;100972.19;5091379;28;20101;-61
2022/09/17 06:09:14;;;;;;;14.65;2.53;;;;;;;10.42;89.15;100978.69;5091113;28;20398;-61
2022/09/17 06:11:40;;;;;;;22.55;2.70;;;;;;;10.51;89.33;100969.88;5091617;28;20485;-61
2022/09/17 06:14:08;;;;;;;15.68;2.42;;;;;;;10.67;88.62;100971.03;5093034;28;20062;-61
2022/09/17 06:16:35;;;;;;;18.48;2.47;;;;;;;10.65;89.34;100973.81;5092951;28;20180;-61
2022/09/17 06:19:03;;;;;;;11.50;2.15;;;;;;;10.86;87.07;100975.34;5091399;28;20044;-61
2022/09/17 06:21:29;;;;;;;23.42;2.40;;;;;;;10.83;86.66;100967.72;5092610;28;20401;-61
2022/09/17 06:23:56;;;;;;;17.50;2.45;;;;;;;10.81;88.09;100975.00;5092215;28;20496;-61
2022/09/17 06:26:23;;;;;;;25.48;3.05;;;;;;;10.80;86.65;100975.97;5093046;28;20068;-61
2022/09/17 06:28:50;;;;;;;18.90;2.30;;;;;;;10.77;87.79;100971.81;5093638;28;20419;-61
2022/09/17 06:31:16;;;;;;;12.60;2.08;;;;;;;10.78;88.34;100984.06;5062158;28;20059;-61
2022/09/17 06:33:43;;;;;;;17.75;2.47;;;;;;;10.71;88.49;100983.00;5096594;28;20490;-61
2022/09/17 06:36:11;;;;;;;20.08;2.65;;;;;;;10.74;87.59;100978.22;5096373;28;20047;-61
2022/09/17 06:38:40;;;;;;;18.20;2.25;;;;;;;10.62;87.08;100978.59;5096055;28;20047;-61
2022/09/17 06:41:07;;;;;;;18.52;2.92;;;;;;;10.69;86.52;100979.66;5078024;28;20089;-60
2022/09/17 06:43:33;;;;;;;16.15;2.53;;;;;;;10.75;86.90;100982.56;5094710;28;20131;-60
2022/09/17 06:46:04;;;;;;;14.70;2.55;;;;;;;10.76;86.85;100980.75;5096096;28;20078;-60
2022/09/17 06:48:33;;;;;;;17.27;2.80;;;;;;;10.71;85.54;100981.19;5096509;28;20052;-60
2022/09/17 06:51:03;;;;;;;13.95;2.15;;;;;;;10.70;86.95;100984.00;5095926;28;20044;-60
2022/09/17 06:53:30;;;;;;;19.13;2.92;;;;;;;10.80;87.18;100986.59;5095643;28;20060;-61
2022/09/17 06:55:58;;;;;;;12.52;1.85;;;;;;;10.90;84.35;100977.56;5095986;28;20040;-61
2022/09/17 06:58:28;;;;;;;18.70;2.40;;;;;;;10.94;84.01;100984.25;5095748;28;20516;-61
2022/09/17 07:01:00;;;;;;;24.73;2.83;;;;;;;10.90;84.36;100988.19;5095860;28;20044;-61
2022/09/17 07:03:27;;;;;;;18.30;2.60;;;;;;;11.06;83.14;100987.53;5095074;28;20044;-61
2022/09/17 07:05:55;;;;;;;21.40;2.40;;;;;;;10.99;84.47;100991.78;5094398;28;20444;-61
2022/09/17 07:08:22;;;;;;;18.90;2.40;;;;;;;11.11;83.16;100993.22;5087532;28;20362;-62
2022/09/17 07:10:48;;;;;;;14.88;2.00;;;;;;;11.17;81.97;100981.16;5094016;28;20451;-61
2022/09/17 07:13:15;;;;;;;20.88;3.10;;;;;;;11.20;82.95;100993.28;5095537;28;20136;-61
2022/09/17 07:15:42;;;;;;;13.90;2.63;;;;;;;11.26;82.36;100998.84;5095656;28;20485;-62
2022/09/17 07:18:10;;;;;;;16.50;2.60;;;;;;;11.27;81.93;100992.50;5095467;28;20226;-61
2022/09/17 07:20:38;;;;;;;12.63;2.03;;;;;;;11.29;81.87;100995.84;5095150;28;20044;-61
2022/09/17 07:23:05;;;;;;;12.85;2.15;;;;;;;11.45;80.80;100994.34;5094850;28;20330;-61
2022/09/17 07:25:31;;;;;;;18.55;2.25;;;;;;;11.44;81.30;100990.84;5094803;28;20347;-62
2022/09/17 07:27:58;;;;;;;16.85;2.33;;;;;;;11.60;80.38;100984.81;5095351;28;20071;-62
2022/09/17 07:30:25;;;;;;;20.70;2.65;;;;;;;11.52;80.29;100988.25;5095802;28;20048;-61
2022/09/17 07:32:52;;;;;;;13.45;2.33;;;;;;;11.61;79.93;100993.63;5094925;28;20051;-61
2022/09/17 07:35:18;;;;;;;22.38;2.00;;;;;;;11.86;78.08;100984.00;5095331;28;20105;-61
2022/09/17 07:37:46;;;;;;;14.73;2.85;;;;;;;11.77;79.19;100991.09;5094678;28;20066;-61
2022/09/17 07:40:13;;;;;;;13.32;1.98;;;;;;;11.81;79.23;100981.81;5094599;28;20554;-61
2022/09/17 07:42:39;;;;;;;19.08;2.17;;;;;;;11.78;78.41;100987.44;5094504;28;20077;-61
2022/09/17 07:45:06;;;;;;;22.75;2.30;;;;;;;11.95;77.13;100982.25;5094937;28;20493;-61
2022/09/17 07:47:38;;;;;;;12.07;1.90;;;;;;;11.98;77.10;100990.75;5094687;28;20086;-62
2022/09/17 07:50:06;;;;;;;13.02;1.90;;;;;;;12.10;76.97;100988.66;5094638;28;20393;-62
2022/09/17 07:52:33;;;;;;;14.65;2.03;;;;;;;12.18;76.87;100980.72;5094776;28;20044;-62
2022/09/17 07:55:00;;;;;;;16.52;2.00;;;;;;;12.38;73.52;100985.81;5093161;28;20090;-62
2022/09/17 07:57:26;;;;;;;12.55;2.47;;;;;;;12.40;74.58;100991.78;5094558;28;20075;-61
2022/09/17 07:59:53;;;;;;;15.55;2.08;;;;;;;12.48;74.47;100994.50;5094421;28;20048;-60
2022/09/17 08:02:20;;;;;;;23.48;2.65;;;;;;;12.56;74.03;100997.19;5076363;28;20090;-60
2022/09/17 08:04:49;;;;;;;18.77;1.92;;;;;;;12.61;74.21;100991.38;5093396;28;20032;-60
2022/09/17 08:07:16;;;;;;;13.40;2.00;;;;;;;12.64;72.44;100988.38;5093176;28;20039;-61
2022/09/17 08:09:43;;;;;;;14.38;2.05;;;;;;;12.63;73.25;100984.06;5094130;28;20136;-60
2022/09/17 08:12:09;;;;;;;16.17;1.92;;;;;;;12.56;73.54;100996.34;5094538;28;20101;-60
2022/09/17 08:14:36;;;;;;;15.93;2.55;;;;;;;12.88;72.32;100982.31;5094338;28;20072;-61
2022/09/17 08:17:06;;;;;;;16.77;1.80;;;;;;;12.92;72.36;100985.50;5094147;28;20090;-61
2022/09/17 08:19:33;;;;;;;18.48;2.00;;;;;;;12.89;71.86;100994.63;5094531;28;20051;-61
2022/09/17 08:22:00;;;;;;;11.80;1.88;;;;;;;12.97;69.79;100993.78;5094212;28;20460;-61
2022/09/17 08:24:27;;;;;;;13.43;1.92;;;;;;;13.16;69.64;100998.81;5093519;28;20047;-61
2022/09/17 08:26:54;;;;;;;14.18;1.75;;;;;;;13.20;70.44;100983.34;5094446;28;20047;-61
2022/09/17 08:29:21;;;;;;;19.08;3.08;;;;;;;13.35;68.02;100988.88;5094013;28;20424;-61
2022/09/17 08:31:47;;;;;;;20.50;2.20;;;;;;;13.35;68.84;100988.88;5094371;28;20051;-61
2022/09/17 08:34:14;;;;;;;11.38;1.90;;;;;;;13.51;67.32;100994.19;5093638;28;20056;-61
2022/09/17 08:36:41;;;;;;;12.75;1.70;;;;;;;13.40;67.53;100990.03;5093086;28;20486;-61
2022/09/17 08:39:10;;;;;;;12.77;1.67;;;;;;;13.41;68.61;101005.03;5093799;28;20056;-61
2022/09/17 08:41:51;;;;;;;18.75;2.13;;;;;;;13.60;68.27;101003.84;5093434;28;20114;-61
2022/09/17 08:44:34;;;;;;;14.07;1.90;;;;;;;13.71;66.07;101004.53;5093790;28;20040;-61
2022/09/17 08:47:10;;;;;;;18.23;1.80;;;;;;;13.75;66.16;100996.03;5093344;28;20036;-61
2022/09/17 08:50:02;;;;;;;11.95;2.28;;;;;;;13.81;66.87;100999.88;5094289;28;20489;-61
2022/09/17 08:52:38;;;;;;;;;;;;;;;13.80;66.42;101000.84;5093353;28;20072;-61
2022/09/17 08:55:44;;;;;;;15.57;1.77;;;;;;;14.05;66.30;100998.16;5092407;28;19927;-62
2022/09/17 08:58:45;;;;;;;15.52;1.90;;;;;;;14.37;65.38;101002.53;5093335;28;20055;-62
2022/09/17 09:01:52;;;;;;;12.50;1.88;;;;;;;14.38;61.43;100994.34;5093257;28;20089;-61
2022/09/17 09:04:58;;;;;;;10.77;1.60;;;;;;;14.56;62.47;100995.97;5074316;28;20047;-61
2022/09/17 09:07:30;;;;;;;11.60;1.90;;;;;;;14.88;62.03;100996.81;5072942;28;20040;-61
2022/09/17 09:10:11;;;;;;;19.77;2.20;;;;;;;15.24;59.74;100994.41;5073006;28;20068;-62
2022/09/17 09:12:39;;;;;;;15.15;1.88;;;;;;;15.78;57.70;100995.34;5073260;28;20044;-61
2022/09/17 09:15:20;;;;;;;14.75;1.90;;;;;;;15.65;58.14;100998.59;5073027;28;20481;-61
2022/09/17 09:17:49;;;;;;;12.00;1.75;;;;;;;15.65;57.15;100991.41;5073368;28;20055;-61
2022/09/17 09:20:28;;;;;;;16.77;2.00;;;;;;;15.42;59.34;101003.97;5073155;28;20047;-61
2022/09/17 09:23:05;;;;;;;16.92;1.90;;;;;;;15.21;59.42;101004.63;5073195;28;20048;-61
2022/09/17 09:25:41;;;;;;;16.20;2.00;;;;;;;14.77;60.74;100993.56;5089865;28;20051;-61
2022/09/17 09:28:48;;;;;;;13.35;2.00;;;;;;;15.11;60.85;101003.00;5086937;28;20048;-61
2022/09/17 09:31:37;;;;;;;13.05;2.47;;;;;;;15.27;61.02;100999.41;5073026;28;20048;-58
2022/09/17 09:34:04;;;;;;;13.77;2.13;;;;;;;15.50;56.92;100991.38;5072731;28;20044;-59
2022/09/17 09:36:32;;;;;;;16.13;2.35;;;;;;;15.63;56.78;100998.78;5073103;28;20094;-58
2022/09/17 09:39:09;;;;;;;14.45;1.98;;;;;;;15.98;57.15;100988.44;5071532;28;20048;-58
2022/09/17 09:41:45;;;;;;;12.40;2.13;;;;;;;16.65;53.36;100994.69;5072869;28;20102;-58
2022/09/17 09:44:14;;;;;;;11.70;1.70;;;;;;;17.18;51.50;101014.03;5072656;28;20040;-59
2022/09/17 09:47:06;;;;;;;9.68;1.70;;;;;;;18.71;47.83;100998.16;5073149;28;20044;-58
2022/09/17 09:49:52;;;;;;;;;;;;;;;20.05;43.51;100995.63;5073189;28;20044;-61
2022/09/17 09:57:48;;;;;;;12.88;2.20;;;;;;;16.83;51.95;100996.97;5110838;27;20701;-61
2022/09/17 10:03:30;;;;;;;9.10;1.73;;;;;;;20.42;41.92;100995.94;5068800;28;20380;-61
2022/09/17 10:06:01;;;;;;;12.00;1.70;;;;;;;20.77;39.67;100999.09;5056193;28;20119;-61
2022/09/17 10:08:31;;;;;;;6.75;1.50;;;;;;;19.44;42.42;100988.59;5061062;28;20402;-62
2022/09/17 10:11:01;;;;;;;11.88;2.00;;;;;;;18.31;46.25;100998.00;5054981;28;20044;-62
2022/09/17 10:13:30;;;;;;;7.88;1.75;;;;;;;17.09;48.95;100988.38;5030064;28;20048;-61
2022/09/17 10:16:17;;;;;;;16.92;2.05;;;;;;;19.61;42.80;100991.69;5029603;28;20092;-61
2022/09/17 10:18:46;;;;;;;9.80;1.70;;;;;;;20.01;43.46;100983.59;5028928;28;20053;-61
2022/09/17 10:21:34;;;;;;;14.88;2.13;;;;;;;19.49;43.79;100976.19;5029806;28;20042;-61
2022/09/17 10:24:04;;;;;;;11.10;2.05;;;;;;;19.74;42.78;100968.34;5033799;28;20103;-61
2022/09/17 10:26:35;;;;;;;11.88;1.70;;;;;;;18.74;45.80;100972.75;5049590;28;20045;-62
2022/09/17 10:29:10;;;;;;;12.73;1.95;;;;;;;17.07;48.05;100982.38;5048635;28;20463;-61
2022/09/17 10:31:54;;;;;;;13.95;1.60;;;;;;;15.94;55.80;100981.78;5049968;28;20575;-61
2022/09/17 10:34:24;;;;;;;16.75;1.80;;;;;;;15.46;58.53;100981.22;5049584;28;20120;-61
2022/09/17 10:36:52;;;;;;;13.80;1.70;;;;;;;15.11;60.33;100975.47;5049458;28;20487;-61
2022/09/17 10:39:31;;;;;;;13.23;1.80;;;;;;;15.69;59.52;100971.31;5049216;28;20045;-62
2022/09/17 10:42:02;;;;;;;10.90;1.50;;;;;;;15.70;58.57;100962.28;5049366;28;20059;-61
2022/09/17 10:44:33;;;;;;;10.25;1.50;;;;;;;15.91;59.41;100956.22;5048601;28;20056;-61
2022/09/17 10:47:05;;;;;;;15.47;1.90;;;;;;;17.08;55.37;100951.88;5049479;28;20049;-61
2022/09/17 10:49:41;;;;;;;14.82;1.50;;;;;;;16.38;55.19;100961.38;5049949;28;20055;-61
2022/09/17 10:52:26;;;;;;;14.25;1.80;;;;;;;16.36;55.11;100958.06;5049165;28;20120;-61
2022/09/17 10:55:06;;;;;;;7.75;1.50;;;;;;;17.81;52.29;100955.16;5049157;28;20063;-61
2022/09/17 10:58:13;;;;;;;13.30;1.77;;;;;;;18.26;50.56;100949.41;5049439;28;20049;-61
2022/09/17 11:01:06;;;;;;;11.00;1.95;;;;;;;17.30;51.97;100949.19;5049065;28;20556;-61
2022/09/17 11:04:13;;;;;;;13.32;1.60;;;;;;;16.57;55.38;100936.72;5048505;28;20077;-61
2022/09/17 11:06:55;;;;;;;13.30;1.80;;;;;;;17.25;50.77;100950.59;5049137;28;20049;-61
2022/09/17 11:14:53;;;;;;;13.00;1.50;;;;;;;17.78;48.70;100950.16;5131094;27;20181;-62
2022/09/17 11:20:31;;;;;;;7.30;1.50;;;;;;;16.83;48.71;100944.22;5090353;27;20352;-60
2022/09/17 11:23:35;;;;;;;11.13;1.65;;;;;;;16.36;57.76;100940.16;5090400;28;20044;-60
2022/09/17 11:26:14;;;;;;;9.82;1.33;;;;;;;15.99;58.94;100941.09;5070096;28;20048;-61
2022/09/17 11:29:05;;;;;;;7.93;1.33;;;;;;;15.49;59.30;100968.31;5070224;28;20049;-61
2022/09/17 11:32:11;;;;;;;4.07;0.95;;;;;;;14.77;59.60;100961.50;5069145;28;20045;-63
2022/09/17 11:34:49;;;;;;;4.78;1.00;;;;;;;14.31;62.04;100974.69;5069813;28;20048;-63
2022/09/17 11:37:25;;;;;;;7.88;1.08;;;;;;;13.99;64.24;100975.66;5069877;28;20482;-61
2022/09/17 11:40:15;;;;;;;11.50;1.17;;;;;;;13.84;63.32;100972.84;5069647;28;20490;-61
2022/09/17 11:42:49;;;;;;;7.40;1.17;;;;;;;13.84;63.60;100980.84;5069968;28;20052;-61
2022/09/17 11:45:38;;;;;;;4.63;1.00;;;;;;;14.48;62.26;100982.63;5069869;28;20045;-60
2022/09/17 11:48:29;;;;;;;4.75;1.30;;;;;;;15.43;60.62;100965.53;5069438;28;20414;-60
2022/09/17 11:51:00;;;;;;;8.65;1.27;;;;;;;16.13;62.33;100969.69;5069815;28;20067;-61
2022/09/17 11:53:58;;;;;;;9.27;1.38;;;;;;;16.61;58.87;100972.78;5069513;28;20378;-62
2022/09/17 11:56:34;;;;;;;6.50;1.23;;;;;;;16.69;57.92;100969.16;5051877;28;20178;-62
2022/09/17 11:59:14;;;;;;;5.38;1.13;;;;;;;17.26;55.83;100962.13;5069084;28;20041;-61
2022/09/17 12:02:06;;;;;;;3.53;1.10;;;;;;;18.07;53.53;100979.69;5071244;28;20044;-63
2022/09/17 12:04:56;;;;;;;8.60;1.50;;;;;;;17.94;53.68;100967.03;5050903;28;20042;-62
2022/09/17 12:07:51;;;;;;;10.57;1.25;;;;;;;17.45;56.12;100960.66;5092431;28;20041;-62
2022/09/17 12:13:35;;;;;;;10.00;1.63;;;;;;;16.33;57.80;100966.47;5070152;28;20378;-61